sensor_id;sensor_type;location;lat;lon;timestamp;P1;durP1;ratioP1;P2;durP2;ratioP2
42964;SDS011;28604;51.204;22.552;2024-01-27T00:00:22;27.17;;;14.68;;
42964;SDS011;28604;51.204;22.552;2024-01-27T00:03:08;26.13;;;14.48;;
42964;SDS011;28604;51.204;22.552;2024-01-27T00:05:34;27.50;;;15.35;;
42964;SDS011;28604;51.204;22.552;2024-01-27T00:08:00;23.63;;;13.82;;
42964;SDS011;28604;51.204;22.552;2024-01-27T00:10:26;25.08;;;14.95;;
42964;SDS011;28604;51.204;22.552;2024-01-27T00:12:52;25.08;;;15.02;;
42964;SDS011;28604;51.204;22.552;2024-01-27T00:15:18;26.40;;;14.30;;
42964;SDS011;28604;51.204;22.552;2024-01-27T00:17:44;27.05;;;15.82;;
42964;SDS011;28604;51.204;22.552;2024-01-27T00:20:10;21.30;;;14.40;;
42964;SDS011;28604;51.204;22.552;2024-01-27T00:22:36;27.92;;;15.00;;
42964;SDS011;28604;51.204;22.552;2024-01-27T00:25:02;27.20;;;15.13;;
42964;SDS011;28604;51.204;22.552;2024-01-27T00:27:28;27.70;;;15.32;;
42964;SDS011;28604;51.204;22.552;2024-01-27T00:29:54;27.10;;;15.95;;
42964;SDS011;28604;51.204;22.552;2024-01-27T00:32:20;26.60;;;15.43;;
42964;SDS011;28604;51.204;22.552;2024-01-27T00:34:46;28.35;;;16.30;;
42964;SDS011;28604;51.204;22.552;2024-01-27T00:37:12;29.00;;;16.63;;
42964;SDS011;28604;51.204;22.552;2024-01-27T00:39:38;27.17;;;16.52;;
42964;SDS011;28604;51.204;22.552;2024-01-27T00:42:04;24.77;;;14.32;;
42964;SDS011;28604;51.204;22.552;2024-01-27T00:44:30;22.67;;;13.68;;
42964;SDS011;28604;51.204;22.552;2024-01-27T00:46:56;28.17;;;15.55;;
42964;SDS011;28604;51.204;22.552;2024-01-27T00:49:22;26.85;;;15.52;;
42964;SDS011;28604;51.204;22.552;2024-01-27T00:51:48;26.27;;;15.55;;
42964;SDS011;28604;51.204;22.552;2024-01-27T00:54:14;25.08;;;15.38;;
42964;SDS011;28604;51.204;22.552;2024-01-27T00:56:39;28.70;;;15.23;;
42964;SDS011;28604;51.204;22.552;2024-01-27T00:59:05;25.15;;;15.38;;
42964;SDS011;28604;51.204;22.552;2024-01-27T01:01:31;24.25;;;14.45;;
42964;SDS011;28604;51.204;22.552;2024-01-27T01:03:57;22.38;;;13.90;;
42964;SDS011;28604;51.204;22.552;2024-01-27T01:06:23;24.75;;;14.85;;
42964;SDS011;28604;51.204;22.552;2024-01-27T01:08:49;25.90;;;14.18;;
42964;SDS011;28604;51.204;22.552;2024-01-27T01:11:15;24.25;;;13.68;;
42964;SDS011;28604;51.204;22.552;2024-01-27T01:13:41;26.70;;;14.45;;
42964;SDS011;28604;51.204;22.552;2024-01-27T01:16:07;25.45;;;13.10;;
42964;SDS011;28604;51.204;22.552;2024-01-27T01:18:33;25.55;;;13.55;;
42964;SDS011;28604;51.204;22.552;2024-01-27T01:20:59;26.17;;;14.57;;
42964;SDS011;28604;51.204;22.552;2024-01-27T01:23:25;26.35;;;14.80;;
42964;SDS011;28604;51.204;22.552;2024-01-27T01:25:51;25.40;;;13.68;;
42964;SDS011;28604;51.204;22.552;2024-01-27T01:28:17;25.38;;;14.50;;
42964;SDS011;28604;51.204;22.552;2024-01-27T01:30:43;26.25;;;15.02;;
42964;SDS011;28604;51.204;22.552;2024-01-27T01:33:10;23.73;;;13.80;;
42964;SDS011;28604;51.204;22.552;2024-01-27T01:35:36;22.83;;;13.02;;
42964;SDS011;28604;51.204;22.552;2024-01-27T01:38:03;23.63;;;13.13;;
42964;SDS011;28604;51.204;22.552;2024-01-27T01:40:29;21.80;;;12.60;;
42964;SDS011;28604;51.204;22.552;2024-01-27T01:42:55;23.98;;;13.20;;
42964;SDS011;28604;51.204;22.552;2024-01-27T01:45:21;21.42;;;12.95;;
42964;SDS011;28604;51.204;22.552;2024-01-27T01:47:47;24.40;;;14.13;;
42964;SDS011;28604;51.204;22.552;2024-01-27T01:50:13;24.40;;;13.55;;
42964;SDS011;28604;51.204;22.552;2024-01-27T01:52:39;22.13;;;12.80;;
42964;SDS011;28604;51.204;22.552;2024-01-27T01:55:06;19.50;;;12.23;;
42964;SDS011;28604;51.204;22.552;2024-01-27T01:57:33;21.17;;;11.98;;
42964;SDS011;28604;51.204;22.552;2024-01-27T01:59:59;18.55;;;12.50;;
42964;SDS011;28604;51.204;22.552;2024-01-27T02:02:25;18.60;;;10.60;;
42964;SDS011;28604;51.204;22.552;2024-01-27T02:04:51;19.40;;;10.85;;
42964;SDS011;28604;51.204;22.552;2024-01-27T02:07:17;15.65;;;10.63;;
42964;SDS011;28604;51.204;22.552;2024-01-27T02:09:42;15.23;;;9.88;;
42964;SDS011;28604;51.204;22.552;2024-01-27T02:12:09;16.67;;;9.88;;
42964;SDS011;28604;51.204;22.552;2024-01-27T02:14:35;16.83;;;8.65;;
42964;SDS011;28604;51.204;22.552;2024-01-27T02:17:01;17.17;;;7.70;;
42964;SDS011;28604;51.204;22.552;2024-01-27T02:19:27;16.20;;;7.65;;
42964;SDS011;28604;51.204;22.552;2024-01-27T02:21:53;15.02;;;7.45;;
42964;SDS011;28604;51.204;22.552;2024-01-27T02:24:19;11.95;;;6.25;;
42964;SDS011;28604;51.204;22.552;2024-01-27T02:26:45;16.80;;;6.18;;
42964;SDS011;28604;51.204;22.552;2024-01-27T02:29:11;14.65;;;5.70;;
42964;SDS011;28604;51.204;22.552;2024-01-27T02:31:37;14.52;;;5.93;;
42964;SDS011;28604;51.204;22.552;2024-01-27T02:34:03;13.15;;;5.50;;
42964;SDS011;28604;51.204;22.552;2024-01-27T02:36:29;9.25;;;4.85;;
42964;SDS011;28604;51.204;22.552;2024-01-27T02:38:54;12.77;;;4.97;;
42964;SDS011;28604;51.204;22.552;2024-01-27T02:41:20;15.27;;;5.45;;
42964;SDS011;28604;51.204;22.552;2024-01-27T02:43:46;9.40;;;5.60;;
42964;SDS011;28604;51.204;22.552;2024-01-27T02:46:12;14.02;;;5.85;;
42964;SDS011;28604;51.204;22.552;2024-01-27T02:48:43;12.63;;;6.07;;
42964;SDS011;28604;51.204;22.552;2024-01-27T02:51:09;13.27;;;6.25;;
42964;SDS011;28604;51.204;22.552;2024-01-27T02:53:35;8.52;;;5.20;;
42964;SDS011;28604;51.204;22.552;2024-01-27T02:56:01;11.63;;;6.05;;
42964;SDS011;28604;51.204;22.552;2024-01-27T02:58:27;6.97;;;4.85;;
42964;SDS011;28604;51.204;22.552;2024-01-27T03:00:54;10.55;;;3.90;;
42964;SDS011;28604;51.204;22.552;2024-01-27T03:03:21;6.53;;;3.13;;
42964;SDS011;28604;51.204;22.552;2024-01-27T03:05:47;2.78;;;1.98;;
42964;SDS011;28604;51.204;22.552;2024-01-27T03:08:13;8.77;;;2.08;;
42964;SDS011;28604;51.204;22.552;2024-01-27T03:10:39;8.75;;;1.55;;
42964;SDS011;28604;51.204;22.552;2024-01-27T03:13:05;6.40;;;1.38;;
42964;SDS011;28604;51.204;22.552;2024-01-27T03:15:32;6.10;;;1.38;;
42964;SDS011;28604;51.204;22.552;2024-01-27T03:17:58;5.53;;;1.50;;
42964;SDS011;28604;51.204;22.552;2024-01-27T03:20:24;7.63;;;1.52;;
42964;SDS011;28604;51.204;22.552;2024-01-27T03:22:50;4.50;;;1.70;;
42964;SDS011;28604;51.204;22.552;2024-01-27T03:25:16;5.95;;;1.02;;
42964;SDS011;28604;51.204;22.552;2024-01-27T03:27:42;10.25;;;1.45;;
42964;SDS011;28604;51.204;22.552;2024-01-27T03:30:08;3.55;;;0.38;;
42964;SDS011;28604;51.204;22.552;2024-01-27T03:32:35;6.82;;;0.95;;
42964;SDS011;28604;51.204;22.552;2024-01-27T03:35:01;13.55;;;0.70;;
42964;SDS011;28604;51.204;22.552;2024-01-27T03:37:28;9.07;;;0.80;;
42964;SDS011;28604;51.204;22.552;2024-01-27T03:39:54;7.40;;;0.93;;
42964;SDS011;28604;51.204;22.552;2024-01-27T03:42:21;9.38;;;1.02;;
42964;SDS011;28604;51.204;22.552;2024-01-27T03:44:49;4.15;;;0.70;;
42964;SDS011;28604;51.204;22.552;2024-01-27T03:47:15;7.68;;;0.45;;
42964;SDS011;28604;51.204;22.552;2024-01-27T03:49:41;4.85;;;0.47;;
42964;SDS011;28604;51.204;22.552;2024-01-27T03:52:07;7.32;;;0.52;;
42964;SDS011;28604;51.204;22.552;2024-01-27T03:54:33;5.07;;;0.82;;
42964;SDS011;28604;51.204;22.552;2024-01-27T03:56:59;6.85;;;0.75;;
42964;SDS011;28604;51.204;22.552;2024-01-27T03:59:25;8.88;;;1.50;;
42964;SDS011;28604;51.204;22.552;2024-01-27T04:01:51;10.88;;;1.15;;
42964;SDS011;28604;51.204;22.552;2024-01-27T04:04:17;9.48;;;0.68;;
42964;SDS011;28604;51.204;22.552;2024-01-27T04:06:42;8.32;;;0.65;;
42964;SDS011;28604;51.204;22.552;2024-01-27T04:09:08;5.60;;;0.63;;
42964;SDS011;28604;51.204;22.552;2024-01-27T04:11:35;8.98;;;0.68;;
42964;SDS011;28604;51.204;22.552;2024-01-27T04:14:03;9.52;;;1.38;;
42964;SDS011;28604;51.204;22.552;2024-01-27T04:16:29;5.28;;;0.70;;
42964;SDS011;28604;51.204;22.552;2024-01-27T04:18:55;12.73;;;1.52;;
42964;SDS011;28604;51.204;22.552;2024-01-27T04:21:21;12.50;;;1.10;;
42964;SDS011;28604;51.204;22.552;2024-01-27T04:23:47;8.18;;;1.00;;
42964;SDS011;28604;51.204;22.552;2024-01-27T04:26:13;9.45;;;0.90;;
42964;SDS011;28604;51.204;22.552;2024-01-27T04:28:39;7.07;;;1.20;;
42964;SDS011;28604;51.204;22.552;2024-01-27T04:31:05;11.05;;;0.65;;
42964;SDS011;28604;51.204;22.552;2024-01-27T04:33:31;9.38;;;2.33;;
42964;SDS011;28604;51.204;22.552;2024-01-27T04:35:58;7.75;;;0.70;;
42964;SDS011;28604;51.204;22.552;2024-01-27T04:38:24;9.68;;;0.88;;
42964;SDS011;28604;51.204;22.552;2024-01-27T04:40:50;8.93;;;1.02;;
42964;SDS011;28604;51.204;22.552;2024-01-27T04:43:17;4.97;;;0.70;;
42964;SDS011;28604;51.204;22.552;2024-01-27T04:45:45;5.38;;;1.08;;
42964;SDS011;28604;51.204;22.552;2024-01-27T04:48:13;4.38;;;0.70;;
42964;SDS011;28604;51.204;22.552;2024-01-27T04:50:38;6.07;;;0.73;;
42964;SDS011;28604;51.204;22.552;2024-01-27T04:53:04;9.15;;;1.13;;
42964;SDS011;28604;51.204;22.552;2024-01-27T04:55:30;11.70;;;2.17;;
42964;SDS011;28604;51.204;22.552;2024-01-27T04:57:56;16.75;;;1.67;;
42964;SDS011;28604;51.204;22.552;2024-01-27T05:00:23;11.02;;;1.38;;
42964;SDS011;28604;51.204;22.552;2024-01-27T05:02:52;10.45;;;1.63;;
42964;SDS011;28604;51.204;22.552;2024-01-27T05:05:18;7.03;;;1.65;;
42964;SDS011;28604;51.204;22.552;2024-01-27T05:07:44;8.48;;;1.48;;
42964;SDS011;28604;51.204;22.552;2024-01-27T05:10:10;10.65;;;1.27;;
42964;SDS011;28604;51.204;22.552;2024-01-27T05:12:39;11.73;;;1.08;;
42964;SDS011;28604;51.204;22.552;2024-01-27T05:15:05;13.27;;;1.73;;
42964;SDS011;28604;51.204;22.552;2024-01-27T05:17:31;8.63;;;1.92;;
42964;SDS011;28604;51.204;22.552;2024-01-27T05:19:57;17.92;;;2.15;;
42964;SDS011;28604;51.204;22.552;2024-01-27T05:22:23;10.90;;;1.17;;
42964;SDS011;28604;51.204;22.552;2024-01-27T05:24:49;7.97;;;0.93;;
42964;SDS011;28604;51.204;22.552;2024-01-27T05:27:15;15.98;;;1.65;;
42964;SDS011;28604;51.204;22.552;2024-01-27T05:29:41;16.13;;;1.52;;
42964;SDS011;28604;51.204;22.552;2024-01-27T05:32:07;10.77;;;1.42;;
42964;SDS011;28604;51.204;22.552;2024-01-27T05:34:34;11.60;;;1.85;;
42964;SDS011;28604;51.204;22.552;2024-01-27T05:36:59;11.07;;;2.03;;
42964;SDS011;28604;51.204;22.552;2024-01-27T05:39:26;5.72;;;0.90;;
42964;SDS011;28604;51.204;22.552;2024-01-27T05:41:51;7.55;;;1.77;;
42964;SDS011;28604;51.204;22.552;2024-01-27T05:44:17;17.30;;;2.50;;
42964;SDS011;28604;51.204;22.552;2024-01-27T05:46:43;7.75;;;1.77;;
42964;SDS011;28604;51.204;22.552;2024-01-27T05:49:09;14.40;;;1.98;;
42964;SDS011;28604;51.204;22.552;2024-01-27T05:51:35;11.93;;;2.15;;
42964;SDS011;28604;51.204;22.552;2024-01-27T05:54:01;15.00;;;1.83;;
42964;SDS011;28604;51.204;22.552;2024-01-27T05:56:27;8.48;;;1.42;;
42964;SDS011;28604;51.204;22.552;2024-01-27T05:58:53;8.82;;;1.40;;
42964;SDS011;28604;51.204;22.552;2024-01-27T06:01:19;10.05;;;1.48;;
42964;SDS011;28604;51.204;22.552;2024-01-27T06:03:45;15.57;;;1.55;;
42964;SDS011;28604;51.204;22.552;2024-01-27T06:06:12;12.73;;;1.70;;
42964;SDS011;28604;51.204;22.552;2024-01-27T06:08:38;8.63;;;2.00;;
42964;SDS011;28604;51.204;22.552;2024-01-27T06:11:04;8.88;;;1.30;;
42964;SDS011;28604;51.204;22.552;2024-01-27T06:13:30;14.45;;;1.77;;
42964;SDS011;28604;51.204;22.552;2024-01-27T06:15:58;11.55;;;1.30;;
42964;SDS011;28604;51.204;22.552;2024-01-27T06:18:24;7.60;;;1.45;;
42964;SDS011;28604;51.204;22.552;2024-01-27T06:20:50;13.60;;;1.10;;
42964;SDS011;28604;51.204;22.552;2024-01-27T06:23:16;15.60;;;2.05;;
42964;SDS011;28604;51.204;22.552;2024-01-27T06:25:42;6.68;;;1.45;;
42964;SDS011;28604;51.204;22.552;2024-01-27T06:28:09;17.52;;;1.80;;
42964;SDS011;28604;51.204;22.552;2024-01-27T06:30:35;11.75;;;1.73;;
42964;SDS011;28604;51.204;22.552;2024-01-27T06:33:01;9.40;;;1.48;;
42964;SDS011;28604;51.204;22.552;2024-01-27T06:35:27;13.35;;;1.88;;
42964;SDS011;28604;51.204;22.552;2024-01-27T06:37:53;10.82;;;2.00;;
42964;SDS011;28604;51.204;22.552;2024-01-27T06:40:19;11.50;;;1.92;;
42964;SDS011;28604;51.204;22.552;2024-01-27T06:42:45;16.33;;;2.42;;
42964;SDS011;28604;51.204;22.552;2024-01-27T06:45:11;9.10;;;2.08;;
42964;SDS011;28604;51.204;22.552;2024-01-27T06:47:37;6.50;;;1.27;;
42964;SDS011;28604;51.204;22.552;2024-01-27T06:50:03;7.35;;;2.00;;
42964;SDS011;28604;51.204;22.552;2024-01-27T06:52:29;11.15;;;1.40;;
42964;SDS011;28604;51.204;22.552;2024-01-27T06:54:55;15.93;;;1.85;;
42964;SDS011;28604;51.204;22.552;2024-01-27T06:57:22;8.32;;;1.77;;
42964;SDS011;28604;51.204;22.552;2024-01-27T06:59:49;11.85;;;1.55;;
42964;SDS011;28604;51.204;22.552;2024-01-27T07:02:24;7.35;;;1.60;;
42964;SDS011;28604;51.204;22.552;2024-01-27T07:04:51;14.07;;;2.38;;
42964;SDS011;28604;51.204;22.552;2024-01-27T07:07:18;22.15;;;3.72;;
42964;SDS011;28604;51.204;22.552;2024-01-27T07:09:54;13.98;;;1.35;;
42964;SDS011;28604;51.204;22.552;2024-01-27T07:12:21;14.15;;;2.28;;
42964;SDS011;28604;51.204;22.552;2024-01-27T07:14:47;8.07;;;1.88;;
42964;SDS011;28604;51.204;22.552;2024-01-27T07:17:13;12.15;;;2.35;;
42964;SDS011;28604;51.204;22.552;2024-01-27T07:19:38;14.50;;;2.05;;
42964;SDS011;28604;51.204;22.552;2024-01-27T07:22:05;9.98;;;1.67;;
42964;SDS011;28604;51.204;22.552;2024-01-27T07:24:31;10.80;;;2.17;;
42964;SDS011;28604;51.204;22.552;2024-01-27T07:26:57;14.93;;;2.30;;
42964;SDS011;28604;51.204;22.552;2024-01-27T07:29:24;11.38;;;1.60;;
42964;SDS011;28604;51.204;22.552;2024-01-27T07:31:51;13.32;;;2.25;;
42964;SDS011;28604;51.204;22.552;2024-01-27T07:34:16;14.10;;;2.00;;
42964;SDS011;28604;51.204;22.552;2024-01-27T07:36:43;15.93;;;1.98;;
42964;SDS011;28604;51.204;22.552;2024-01-27T07:39:09;11.73;;;1.88;;
42964;SDS011;28604;51.204;22.552;2024-01-27T07:41:36;19.52;;;2.80;;
42964;SDS011;28604;51.204;22.552;2024-01-27T07:44:11;10.00;;;1.50;;
42964;SDS011;28604;51.204;22.552;2024-01-27T07:46:39;14.95;;;1.77;;
42964;SDS011;28604;51.204;22.552;2024-01-27T07:49:06;14.68;;;2.13;;
42964;SDS011;28604;51.204;22.552;2024-01-27T07:51:33;10.75;;;2.58;;
42964;SDS011;28604;51.204;22.552;2024-01-27T07:54:00;11.77;;;2.92;;
42964;SDS011;28604;51.204;22.552;2024-01-27T07:56:31;31.60;;;6.95;;
42964;SDS011;28604;51.204;22.552;2024-01-27T07:58:57;20.85;;;4.68;;
42964;SDS011;28604;51.204;22.552;2024-01-27T08:01:26;20.52;;;3.30;;
42964;SDS011;28604;51.204;22.552;2024-01-27T08:03:52;13.95;;;2.63;;
42964;SDS011;28604;51.204;22.552;2024-01-27T08:06:26;20.83;;;2.95;;
42964;SDS011;28604;51.204;22.552;2024-01-27T08:08:55;18.80;;;2.67;;
42964;SDS011;28604;51.204;22.552;2024-01-27T08:11:24;11.43;;;1.92;;
42964;SDS011;28604;51.204;22.552;2024-01-27T08:13:50;15.80;;;1.92;;
42964;SDS011;28604;51.204;22.552;2024-01-27T08:16:17;15.15;;;1.98;;
42964;SDS011;28604;51.204;22.552;2024-01-27T08:18:43;16.42;;;2.03;;
42964;SDS011;28604;51.204;22.552;2024-01-27T08:21:10;15.98;;;2.05;;
42964;SDS011;28604;51.204;22.552;2024-01-27T08:23:37;10.63;;;1.85;;
42964;SDS011;28604;51.204;22.552;2024-01-27T08:26:06;15.25;;;2.13;;
42964;SDS011;28604;51.204;22.552;2024-01-27T08:28:32;15.60;;;3.05;;
42964;SDS011;28604;51.204;22.552;2024-01-27T08:30:58;8.75;;;1.92;;
42964;SDS011;28604;51.204;22.552;2024-01-27T08:33:25;14.35;;;2.63;;
42964;SDS011;28604;51.204;22.552;2024-01-27T08:35:51;20.45;;;3.03;;
42964;SDS011;28604;51.204;22.552;2024-01-27T08:38:17;18.25;;;3.00;;
42964;SDS011;28604;51.204;22.552;2024-01-27T08:40:43;15.00;;;2.60;;
42964;SDS011;28604;51.204;22.552;2024-01-27T08:43:09;17.70;;;2.95;;
42964;SDS011;28604;51.204;22.552;2024-01-27T08:45:38;13.88;;;2.58;;
42964;SDS011;28604;51.204;22.552;2024-01-27T08:48:04;16.42;;;2.70;;
42964;SDS011;28604;51.204;22.552;2024-01-27T08:50:31;17.20;;;3.05;;
42964;SDS011;28604;51.204;22.552;2024-01-27T08:55:41;16.50;;;3.25;;
42964;SDS011;28604;51.204;22.552;2024-01-27T08:58:08;9.07;;;2.72;;
42964;SDS011;28604;51.204;22.552;2024-01-27T09:00:34;12.77;;;3.20;;
42964;SDS011;28604;51.204;22.552;2024-01-27T09:03:00;18.10;;;3.78;;
42964;SDS011;28604;51.204;22.552;2024-01-27T09:05:27;12.70;;;3.28;;
42964;SDS011;28604;51.204;22.552;2024-01-27T09:07:54;13.52;;;3.05;;
42964;SDS011;28604;51.204;22.552;2024-01-27T09:10:20;12.80;;;3.45;;
42964;SDS011;28604;51.204;22.552;2024-01-27T09:12:46;9.55;;;2.75;;
42964;SDS011;28604;51.204;22.552;2024-01-27T09:15:12;15.10;;;4.05;;
42964;SDS011;28604;51.204;22.552;2024-01-27T09:17:38;15.13;;;4.18;;
42964;SDS011;28604;51.204;22.552;2024-01-27T09:20:05;23.27;;;4.20;;
42964;SDS011;28604;51.204;22.552;2024-01-27T09:22:31;20.00;;;4.47;;
42964;SDS011;28604;51.204;22.552;2024-01-27T09:24:57;16.05;;;4.75;;
42964;SDS011;28604;51.204;22.552;2024-01-27T09:27:23;15.98;;;4.28;;
42964;SDS011;28604;51.204;22.552;2024-01-27T09:29:49;14.65;;;4.75;;
42964;SDS011;28604;51.204;22.552;2024-01-27T09:32:15;12.55;;;5.03;;
42964;SDS011;28604;51.204;22.552;2024-01-27T09:34:41;18.55;;;4.90;;
42964;SDS011;28604;51.204;22.552;2024-01-27T09:37:07;17.75;;;4.88;;
42964;SDS011;28604;51.204;22.552;2024-01-27T09:39:33;15.57;;;4.30;;
42964;SDS011;28604;51.204;22.552;2024-01-27T09:42:00;14.80;;;4.75;;
42964;SDS011;28604;51.204;22.552;2024-01-27T09:46:58;10.00;;;3.88;;
42964;SDS011;28604;51.204;22.552;2024-01-27T09:49:24;10.98;;;4.53;;
42964;SDS011;28604;51.204;22.552;2024-01-27T09:51:51;14.13;;;4.28;;
42964;SDS011;28604;51.204;22.552;2024-01-27T09:54:18;11.45;;;3.83;;
42964;SDS011;28604;51.204;22.552;2024-01-27T09:56:45;10.80;;;3.47;;
42964;SDS011;28604;51.204;22.552;2024-01-27T09:59:11;14.60;;;4.22;;
42964;SDS011;28604;51.204;22.552;2024-01-27T10:01:39;10.48;;;3.85;;
42964;SDS011;28604;51.204;22.552;2024-01-27T10:04:07;13.00;;;3.67;;
42964;SDS011;28604;51.204;22.552;2024-01-27T10:06:34;13.73;;;4.13;;
42964;SDS011;28604;51.204;22.552;2024-01-27T10:09:00;10.90;;;4.15;;
42964;SDS011;28604;51.204;22.552;2024-01-27T10:11:26;9.00;;;3.58;;
42964;SDS011;28604;51.204;22.552;2024-01-27T10:13:57;14.05;;;3.67;;
42964;SDS011;28604;51.204;22.552;2024-01-27T10:16:25;17.02;;;5.15;;
42964;SDS011;28604;51.204;22.552;2024-01-27T10:19:01;9.55;;;4.65;;
42964;SDS011;28604;51.204;22.552;2024-01-27T10:21:27;13.65;;;4.10;;
42964;SDS011;28604;51.204;22.552;2024-01-27T10:23:53;13.77;;;4.55;;
42964;SDS011;28604;51.204;22.552;2024-01-27T10:26:20;12.45;;;4.38;;
42964;SDS011;28604;51.204;22.552;2024-01-27T10:28:57;10.93;;;4.38;;
42964;SDS011;28604;51.204;22.552;2024-01-27T10:31:36;10.63;;;4.05;;
42964;SDS011;28604;51.204;22.552;2024-01-27T10:34:02;17.42;;;3.47;;
42964;SDS011;28604;51.204;22.552;2024-01-27T10:36:42;7.78;;;3.35;;
42964;SDS011;28604;51.204;22.552;2024-01-27T10:39:22;11.40;;;4.03;;
42964;SDS011;28604;51.204;22.552;2024-01-27T10:41:49;9.98;;;3.55;;
42964;SDS011;28604;51.204;22.552;2024-01-27T10:44:17;9.82;;;3.50;;
42964;SDS011;28604;51.204;22.552;2024-01-27T10:46:45;7.65;;;3.72;;
42964;SDS011;28604;51.204;22.552;2024-01-27T10:49:13;12.30;;;4.32;;
42964;SDS011;28604;51.204;22.552;2024-01-27T10:52:06;11.85;;;3.90;;
42964;SDS011;28604;51.204;22.552;2024-01-27T10:54:36;12.73;;;3.58;;
42964;SDS011;28604;51.204;22.552;2024-01-27T10:57:03;8.35;;;3.88;;
42964;SDS011;28604;51.204;22.552;2024-01-27T10:59:30;9.90;;;2.95;;
42964;SDS011;28604;51.204;22.552;2024-01-27T11:01:57;8.23;;;3.13;;
42964;SDS011;28604;51.204;22.552;2024-01-27T11:04:23;9.95;;;3.03;;
42964;SDS011;28604;51.204;22.552;2024-01-27T11:06:51;11.38;;;3.58;;
42964;SDS011;28604;51.204;22.552;2024-01-27T11:09:17;10.82;;;3.50;;
42964;SDS011;28604;51.204;22.552;2024-01-27T11:11:44;18.58;;;4.32;;
42964;SDS011;28604;51.204;22.552;2024-01-27T11:14:11;8.23;;;3.72;;
42964;SDS011;28604;51.204;22.552;2024-01-27T11:16:37;8.00;;;4.30;;
42964;SDS011;28604;51.204;22.552;2024-01-27T11:19:12;12.32;;;4.53;;
42964;SDS011;28604;51.204;22.552;2024-01-27T11:21:38;9.55;;;3.70;;
42964;SDS011;28604;51.204;22.552;2024-01-27T11:24:15;10.35;;;4.07;;
42964;SDS011;28604;51.204;22.552;2024-01-27T11:26:45;10.88;;;4.38;;
42964;SDS011;28604;51.204;22.552;2024-01-27T11:29:11;9.00;;;4.50;;
42964;SDS011;28604;51.204;22.552;2024-01-27T11:31:46;12.32;;;5.03;;
42964;SDS011;28604;51.204;22.552;2024-01-27T11:34:13;6.30;;;3.47;;
42964;SDS011;28604;51.204;22.552;2024-01-27T11:36:42;4.47;;;2.45;;
42964;SDS011;28604;51.204;22.552;2024-01-27T11:39:28;7.75;;;3.15;;
42964;SDS011;28604;51.204;22.552;2024-01-27T11:42:04;6.43;;;3.15;;
42964;SDS011;28604;51.204;22.552;2024-01-27T11:44:33;4.65;;;3.38;;
42964;SDS011;28604;51.204;22.552;2024-01-27T11:47:00;11.30;;;3.92;;
42964;SDS011;28604;51.204;22.552;2024-01-27T11:49:26;4.25;;;3.00;;
42964;SDS011;28604;51.204;22.552;2024-01-27T11:51:53;8.85;;;3.85;;
42964;SDS011;28604;51.204;22.552;2024-01-27T11:54:19;8.85;;;3.50;;
42964;SDS011;28604;51.204;22.552;2024-01-27T11:56:45;4.32;;;2.58;;
42964;SDS011;28604;51.204;22.552;2024-01-27T11:59:11;5.18;;;2.97;;
42964;SDS011;28604;51.204;22.552;2024-01-27T12:01:38;8.55;;;2.78;;
42964;SDS011;28604;51.204;22.552;2024-01-27T12:04:04;7.10;;;2.15;;
42964;SDS011;28604;51.204;22.552;2024-01-27T12:06:31;5.43;;;2.85;;
42964;SDS011;28604;51.204;22.552;2024-01-27T12:08:57;3.65;;;2.42;;
42964;SDS011;28604;51.204;22.552;2024-01-27T12:11:26;4.57;;;2.63;;
42964;SDS011;28604;51.204;22.552;2024-01-27T12:13:52;8.25;;;3.47;;
42964;SDS011;28604;51.204;22.552;2024-01-27T12:16:21;4.32;;;2.55;;
42964;SDS011;28604;51.204;22.552;2024-01-27T12:18:47;5.38;;;2.53;;
42964;SDS011;28604;51.204;22.552;2024-01-27T12:21:20;7.05;;;2.80;;
42964;SDS011;28604;51.204;22.552;2024-01-27T12:23:50;6.18;;;2.47;;
42964;SDS011;28604;51.204;22.552;2024-01-27T12:26:20;7.80;;;3.22;;
42964;SDS011;28604;51.204;22.552;2024-01-27T12:28:47;4.80;;;2.97;;
42964;SDS011;28604;51.204;22.552;2024-01-27T12:31:17;9.70;;;3.13;;
42964;SDS011;28604;51.204;22.552;2024-01-27T12:33:53;5.07;;;2.78;;
42964;SDS011;28604;51.204;22.552;2024-01-27T12:36:21;10.02;;;2.60;;
42964;SDS011;28604;51.204;22.552;2024-01-27T12:38:54;4.95;;;3.00;;
42964;SDS011;28604;51.204;22.552;2024-01-27T12:41:20;6.63;;;2.97;;
42964;SDS011;28604;51.204;22.552;2024-01-27T12:43:46;7.97;;;3.03;;
42964;SDS011;28604;51.204;22.552;2024-01-27T12:46:13;9.05;;;2.80;;
42964;SDS011;28604;51.204;22.552;2024-01-27T12:48:40;6.80;;;3.03;;
42964;SDS011;28604;51.204;22.552;2024-01-27T12:51:06;5.47;;;2.42;;
42964;SDS011;28604;51.204;22.552;2024-01-27T12:53:32;7.15;;;3.22;;
42964;SDS011;28604;51.204;22.552;2024-01-27T12:55:58;5.55;;;2.67;;
42964;SDS011;28604;51.204;22.552;2024-01-27T12:58:24;7.03;;;2.97;;
42964;SDS011;28604;51.204;22.552;2024-01-27T13:00:50;8.10;;;3.67;;
42964;SDS011;28604;51.204;22.552;2024-01-27T13:03:16;5.32;;;3.33;;
42964;SDS011;28604;51.204;22.552;2024-01-27T13:05:43;8.23;;;4.60;;
42964;SDS011;28604;51.204;22.552;2024-01-27T13:08:09;7.90;;;3.67;;
42964;SDS011;28604;51.204;22.552;2024-01-27T13:10:35;6.93;;;3.55;;
42964;SDS011;28604;51.204;22.552;2024-01-27T13:13:01;6.55;;;3.90;;
42964;SDS011;28604;51.204;22.552;2024-01-27T13:15:28;9.93;;;4.18;;
42964;SDS011;28604;51.204;22.552;2024-01-27T13:17:54;7.88;;;4.05;;
42964;SDS011;28604;51.204;22.552;2024-01-27T13:20:20;7.97;;;3.95;;
42964;SDS011;28604;51.204;22.552;2024-01-27T13:22:46;8.75;;;4.90;;
42964;SDS011;28604;51.204;22.552;2024-01-27T13:25:12;8.75;;;4.78;;
42964;SDS011;28604;51.204;22.552;2024-01-27T13:27:38;9.48;;;4.95;;
42964;SDS011;28604;51.204;22.552;2024-01-27T13:30:04;7.88;;;4.90;;
42964;SDS011;28604;51.204;22.552;2024-01-27T13:32:30;12.02;;;6.63;;
42964;SDS011;28604;51.204;22.552;2024-01-27T13:34:57;11.35;;;6.28;;
42964;SDS011;28604;51.204;22.552;2024-01-27T13:37:22;10.48;;;5.32;;
42964;SDS011;28604;51.204;22.552;2024-01-27T13:39:48;11.15;;;5.68;;
42964;SDS011;28604;51.204;22.552;2024-01-27T13:42:15;11.82;;;6.15;;
42964;SDS011;28604;51.204;22.552;2024-01-27T13:44:41;10.20;;;5.78;;
42964;SDS011;28604;51.204;22.552;2024-01-27T13:47:07;9.32;;;5.68;;
42964;SDS011;28604;51.204;22.552;2024-01-27T13:49:35;11.02;;;6.28;;
42964;SDS011;28604;51.204;22.552;2024-01-27T13:52:01;9.95;;;6.03;;
42964;SDS011;28604;51.204;22.552;2024-01-27T13:54:28;10.20;;;5.75;;
42964;SDS011;28604;51.204;22.552;2024-01-27T13:56:54;9.55;;;5.68;;
42964;SDS011;28604;51.204;22.552;2024-01-27T13:59:20;7.25;;;6.10;;
42964;SDS011;28604;51.204;22.552;2024-01-27T14:01:46;9.23;;;6.03;;
42964;SDS011;28604;51.204;22.552;2024-01-27T14:04:13;7.47;;;5.30;;
42964;SDS011;28604;51.204;22.552;2024-01-27T14:06:38;10.48;;;5.90;;
42964;SDS011;28604;51.204;22.552;2024-01-27T14:09:04;6.80;;;5.13;;
42964;SDS011;28604;51.204;22.552;2024-01-27T14:11:30;9.02;;;5.15;;
42964;SDS011;28604;51.204;22.552;2024-01-27T14:13:56;6.65;;;5.05;;
42964;SDS011;28604;51.204;22.552;2024-01-27T14:16:22;9.65;;;5.38;;
42964;SDS011;28604;51.204;22.552;2024-01-27T14:18:48;9.45;;;5.65;;
42964;SDS011;28604;51.204;22.552;2024-01-27T14:21:14;7.45;;;5.95;;
42964;SDS011;28604;51.204;22.552;2024-01-27T14:23:40;8.73;;;5.95;;
42964;SDS011;28604;51.204;22.552;2024-01-27T14:26:06;7.88;;;6.32;;
42964;SDS011;28604;51.204;22.552;2024-01-27T14:28:43;9.43;;;6.75;;